sensor_id;sensor_type;location;lat;lon;timestamp;temperature;humidity
44823;DHT22;51097;51.984;5.650;2022-12-29T00:01:16;14.00;99.90
44823;DHT22;51097;51.984;5.650;2022-12-29T00:03:41;14.10;99.90
44823;DHT22;51097;51.984;5.650;2022-12-29T00:06:07;14.10;99.90
44823;DHT22;51097;51.984;5.650;2022-12-29T00:08:33;14.20;99.90
44823;DHT22;51097;51.984;5.650;2022-12-29T00:11:16;14.20;99.90
44823;DHT22;51097;51.984;5.650;2022-12-29T00:13:42;14.30;99.90
44823;DHT22;51097;51.984;5.650;2022-12-29T00:16:27;14.30;99.90
44823;DHT22;51097;51.984;5.650;2022-12-29T00:18:53;14.20;99.90
44823;DHT22;51097;51.984;5.650;2022-12-29T00:21:20;14.20;99.90
44823;DHT22;51097;51.984;5.650;2022-12-29T00:24:13;14.30;99.90
44823;DHT22;51097;51.984;5.650;2022-12-29T00:29:50;14.20;99.90
44823;DHT22;51097;51.984;5.650;2022-12-29T00:32:35;14.20;99.90
44823;DHT22;51097;51.984;5.650;2022-12-29T00:35:35;14.10;99.90
44823;DHT22;51097;51.984;5.650;2022-12-29T00:38:05;14.30;99.90
44823;DHT22;51097;51.984;5.650;2022-12-29T00:40:51;14.20;99.90
44823;DHT22;51097;51.984;5.650;2022-12-29T00:43:35;14.10;99.90
44823;DHT22;51097;51.984;5.650;2022-12-29T00:46:19;14.20;99.90
44823;DHT22;51097;51.984;5.650;2022-12-29T00:48:44;14.00;99.90
44823;DHT22;51097;51.984;5.650;2022-12-29T00:51:28;14.10;99.90
44823;DHT22;51097;51.984;5.650;2022-12-29T00:53:54;14.10;99.90
44823;DHT22;51097;51.984;5.650;2022-12-29T00:56:19;14.10;99.90
44823;DHT22;51097;51.984;5.650;2022-12-29T00:58:45;14.10;99.90
44823;DHT22;51097;51.984;5.650;2022-12-29T01:01:11;14.10;99.90
44823;DHT22;51097;51.984;5.650;2022-12-29T01:03:37;14.10;99.90
44823;DHT22;51097;51.984;5.650;2022-12-29T01:06:05;14.10;99.90
44823;DHT22;51097;51.984;5.650;2022-12-29T01:08:31;14.30;99.90
44823;DHT22;51097;51.984;5.650;2022-12-29T01:11:08;14.30;99.90
44823;DHT22;51097;51.984;5.650;2022-12-29T01:13:35;14.30;99.90
44823;DHT22;51097;51.984;5.650;2022-12-29T01:16:00;14.40;99.90
44823;DHT22;51097;51.984;5.650;2022-12-29T01:18:26;14.30;99.90
44823;DHT22;51097;51.984;5.650;2022-12-29T01:21:03;14.20;99.90
44823;DHT22;51097;51.984;5.650;2022-12-29T01:23:29;14.20;99.90
44823;DHT22;51097;51.984;5.650;2022-12-29T01:25:55;14.20;99.90
44823;DHT22;51097;51.984;5.650;2022-12-29T01:28:21;14.10;99.90
44823;DHT22;51097;51.984;5.650;2022-12-29T01:30:47;14.20;99.90
44823;DHT22;51097;51.984;5.650;2022-12-29T01:33:12;13.90;99.90
44823;DHT22;51097;51.984;5.650;2022-12-29T01:35:38;14.10;99.90
44823;DHT22;51097;51.984;5.650;2022-12-29T01:38:03;14.00;99.90
44823;DHT22;51097;51.984;5.650;2022-12-29T01:40:29;13.90;99.90
44823;DHT22;51097;51.984;5.650;2022-12-29T01:42:54;13.80;99.90
44823;DHT22;51097;51.984;5.650;2022-12-29T01:45:20;13.90;99.90
44823;DHT22;51097;51.984;5.650;2022-12-29T01:47:58;14.00;99.90
44823;DHT22;51097;51.984;5.650;2022-12-29T01:50:43;14.00;99.90
44823;DHT22;51097;51.984;5.650;2022-12-29T01:53:15;14.00;99.90
44823;DHT22;51097;51.984;5.650;2022-12-29T01:55:46;14.00;99.90
44823;DHT22;51097;51.984;5.650;2022-12-29T01:58:15;13.90;99.90
44823;DHT22;51097;51.984;5.650;2022-12-29T02:00:41;13.70;99.90
44823;DHT22;51097;51.984;5.650;2022-12-29T02:03:08;13.80;99.90
44823;DHT22;51097;51.984;5.650;2022-12-29T02:08:04;13.80;99.90
44823;DHT22;51097;51.984;5.650;2022-12-29T02:10:31;13.70;99.90
44823;DHT22;51097;51.984;5.650;2022-12-29T02:12:57;13.70;99.90
44823;DHT22;51097;51.984;5.650;2022-12-29T02:15:36;13.80;99.90
44823;DHT22;51097;51.984;5.650;2022-12-29T02:18:15;13.80;99.90
44823;DHT22;51097;51.984;5.650;2022-12-29T02:21:02;13.80;99.90
44823;DHT22;51097;51.984;5.650;2022-12-29T02:23:43;13.70;99.90
44823;DHT22;51097;51.984;5.650;2022-12-29T02:31:39;13.80;99.90
44823;DHT22;51097;51.984;5.650;2022-12-29T02:42:36;13.40;99.90
44823;DHT22;51097;51.984;5.650;2022-12-29T02:48:17;13.20;99.90
44823;DHT22;51097;51.984;5.650;2022-12-29T02:51:10;13.30;99.90
44823;DHT22;51097;51.984;5.650;2022-12-29T02:53:37;13.40;99.90
44823;DHT22;51097;51.984;5.650;2022-12-29T02:56:22;13.50;99.90
44823;DHT22;51097;51.984;5.650;2022-12-29T02:58:48;13.50;99.90
44823;DHT22;51097;51.984;5.650;2022-12-29T03:07:19;13.60;99.90
44823;DHT22;51097;51.984;5.650;2022-12-29T03:15:25;13.70;99.90
44823;DHT22;51097;51.984;5.650;2022-12-29T03:18:22;13.60;99.90
44823;DHT22;51097;51.984;5.650;2022-12-29T03:20:53;13.60;99.90
44823;DHT22;51097;51.984;5.650;2022-12-29T03:23:21;13.60;99.90
44823;DHT22;51097;51.984;5.650;2022-12-29T03:25:52;13.40;99.90
44823;DHT22;51097;51.984;5.650;2022-12-29T03:28:23;13.60;99.90
44823;DHT22;51097;51.984;5.650;2022-12-29T03:30:50;13.50;99.90
44823;DHT22;51097;51.984;5.650;2022-12-29T03:33:18;13.70;99.90
44823;DHT22;51097;51.984;5.650;2022-12-29T03:35:48;13.80;99.90
44823;DHT22;51097;51.984;5.650;2022-12-29T03:38:30;13.80;99.90
44823;DHT22;51097;51.984;5.650;2022-12-29T03:41:00;13.90;99.90
44823;DHT22;51097;51.984;5.650;2022-12-29T03:43:29;14.00;99.90
44823;DHT22;51097;51.984;5.650;2022-12-29T03:45:55;13.90;99.90
44823;DHT22;51097;51.984;5.650;2022-12-29T03:48:20;13.80;99.90
44823;DHT22;51097;51.984;5.650;2022-12-29T03:50:46;13.90;99.90
44823;DHT22;51097;51.984;5.650;2022-12-29T03:53:11;13.90;99.90
44823;DHT22;51097;51.984;5.650;2022-12-29T03:55:37;14.00;99.90
44823;DHT22;51097;51.984;5.650;2022-12-29T03:58:03;13.80;99.90
44823;DHT22;51097;51.984;5.650;2022-12-29T04:00:28;13.80;99.90
44823;DHT22;51097;51.984;5.650;2022-12-29T04:02:54;13.80;99.90
44823;DHT22;51097;51.984;5.650;2022-12-29T04:05:20;13.80;99.90
44823;DHT22;51097;51.984;5.650;2022-12-29T04:07:46;13.80;99.90
44823;DHT22;51097;51.984;5.650;2022-12-29T04:10:11;13.80;99.90
44823;DHT22;51097;51.984;5.650;2022-12-29T04:12:37;13.80;99.90
44823;DHT22;51097;51.984;5.650;2022-12-29T04:15:03;13.70;99.90
44823;DHT22;51097;51.984;5.650;2022-12-29T04:17:29;13.70;99.90
44823;DHT22;51097;51.984;5.650;2022-12-29T04:19:54;13.70;99.90
44823;DHT22;51097;51.984;5.650;2022-12-29T04:22:40;13.70;99.90
44823;DHT22;51097;51.984;5.650;2022-12-29T04:25:06;13.70;99.90
44823;DHT22;51097;51.984;5.650;2022-12-29T04:27:31;13.70;99.90
44823;DHT22;51097;51.984;5.650;2022-12-29T04:29:57;13.80;99.90
44823;DHT22;51097;51.984;5.650;2022-12-29T04:32:22;13.60;99.90
44823;DHT22;51097;51.984;5.650;2022-12-29T04:34:48;13.40;99.90
44823;DHT22;51097;51.984;5.650;2022-12-29T04:37:14;13.50;99.90
44823;DHT22;51097;51.984;5.650;2022-12-29T04:39:39;13.50;99.90
44823;DHT22;51097;51.984;5.650;2022-12-29T04:42:05;13.40;99.90
44823;DHT22;51097;51.984;5.650;2022-12-29T04:44:30;13.50;99.90
44823;DHT22;51097;51.984;5.650;2022-12-29T04:46:56;13.30;99.90
44823;DHT22;51097;51.984;5.650;2022-12-29T04:49:21;13.50;99.90
44823;DHT22;51097;51.984;5.650;2022-12-29T04:51:47;13.60;99.90
44823;DHT22;51097;51.984;5.650;2022-12-29T04:54:12;13.50;99.90
44823;DHT22;51097;51.984;5.650;2022-12-29T04:56:38;13.40;99.90
44823;DHT22;51097;51.984;5.650;2022-12-29T04:59:04;13.40;99.90
44823;DHT22;51097;51.984;5.650;2022-12-29T05:01:29;13.20;99.90
44823;DHT22;51097;51.984;5.650;2022-12-29T05:03:55;13.30;99.90
44823;DHT22;51097;51.984;5.650;2022-12-29T05:06:20;13.40;99.90
44823;DHT22;51097;51.984;5.650;2022-12-29T05:08:46;13.20;99.90
44823;DHT22;51097;51.984;5.650;2022-12-29T05:11:12;13.30;99.90
44823;DHT22;51097;51.984;5.650;2022-12-29T05:13:37;13.30;99.90
44823;DHT22;51097;51.984;5.650;2022-12-29T05:16:03;13.20;99.90
44823;DHT22;51097;51.984;5.650;2022-12-29T05:18:28;13.10;99.90
44823;DHT22;51097;51.984;5.650;2022-12-29T05:20:54;13.00;99.90
44823;DHT22;51097;51.984;5.650;2022-12-29T05:23:20;13.10;99.90
44823;DHT22;51097;51.984;5.650;2022-12-29T05:25:45;13.10;99.90
44823;DHT22;51097;51.984;5.650;2022-12-29T05:28:11;13.10;99.90
44823;DHT22;51097;51.984;5.650;2022-12-29T05:30:37;13.20;99.90
44823;DHT22;51097;51.984;5.650;2022-12-29T05:33:02;13.20;99.90
44823;DHT22;51097;51.984;5.650;2022-12-29T05:35:28;13.20;99.90
44823;DHT22;51097;51.984;5.650;2022-12-29T05:37:53;13.30;99.90
44823;DHT22;51097;51.984;5.650;2022-12-29T05:40:20;13.10;99.90
44823;DHT22;51097;51.984;5.650;2022-12-29T05:42:46;13.10;99.90
44823;DHT22;51097;51.984;5.650;2022-12-29T05:45:11;13.20;99.90
44823;DHT22;51097;51.984;5.650;2022-12-29T05:47:37;13.10;99.90
44823;DHT22;51097;51.984;5.650;2022-12-29T05:50:03;13.10;99.90
44823;DHT22;51097;51.984;5.650;2022-12-29T05:52:29;13.10;99.90
44823;DHT22;51097;51.984;5.650;2022-12-29T05:54:54;13.10;99.90
44823;DHT22;51097;51.984;5.650;2022-12-29T05:57:20;13.10;99.90
44823;DHT22;51097;51.984;5.650;2022-12-29T05:59:45;13.10;99.90
44823;DHT22;51097;51.984;5.650;2022-12-29T06:02:11;13.00;99.90
44823;DHT22;51097;51.984;5.650;2022-12-29T06:04:36;12.80;99.90
44823;DHT22;51097;51.984;5.650;2022-12-29T06:07:02;13.00;99.90
44823;DHT22;51097;51.984;5.650;2022-12-29T06:09:27;13.00;99.90
44823;DHT22;51097;51.984;5.650;2022-12-29T06:11:53;13.00;99.90
44823;DHT22;51097;51.984;5.650;2022-12-29T06:14:18;12.90;99.90
44823;DHT22;51097;51.984;5.650;2022-12-29T06:16:44;12.80;99.90
44823;DHT22;51097;51.984;5.650;2022-12-29T06:19:09;12.80;99.90
44823;DHT22;51097;51.984;5.650;2022-12-29T06:21:35;12.80;99.90
44823;DHT22;51097;51.984;5.650;2022-12-29T06:24:02;12.80;99.90
44823;DHT22;51097;51.984;5.650;2022-12-29T06:26:28;12.80;99.90
44823;DHT22;51097;51.984;5.650;2022-12-29T06:28:53;13.00;99.90
44823;DHT22;51097;51.984;5.650;2022-12-29T06:31:19;13.00;99.90
44823;DHT22;51097;51.984;5.650;2022-12-29T06:33:44;12.90;99.90
44823;DHT22;51097;51.984;5.650;2022-12-29T06:36:10;13.00;99.90
44823;DHT22;51097;51.984;5.650;2022-12-29T06:38:36;13.10;99.90
44823;DHT22;51097;51.984;5.650;2022-12-29T06:41:01;13.00;99.90
44823;DHT22;51097;51.984;5.650;2022-12-29T06:43:27;13.20;99.90
44823;DHT22;51097;51.984;5.650;2022-12-29T06:45:52;13.10;99.90
44823;DHT22;51097;51.984;5.650;2022-12-29T06:48:18;13.10;99.90
44823;DHT22;51097;51.984;5.650;2022-12-29T06:50:43;13.10;99.90
44823;DHT22;51097;51.984;5.650;2022-12-29T06:53:09;13.10;99.90
44823;DHT22;51097;51.984;5.650;2022-12-29T06:55:35;13.00;99.90
44823;DHT22;51097;51.984;5.650;2022-12-29T06:58:00;13.10;99.90
44823;DHT22;51097;51.984;5.650;2022-12-29T07:00:26;13.30;99.90
44823;DHT22;51097;51.984;5.650;2022-12-29T07:02:52;13.20;99.90
44823;DHT22;51097;51.984;5.650;2022-12-29T07:05:19;13.20;99.90
44823;DHT22;51097;51.984;5.650;2022-12-29T07:07:45;13.30;99.90
44823;DHT22;51097;51.984;5.650;2022-12-29T07:10:10;13.30;99.90
44823;DHT22;51097;51.984;5.650;2022-12-29T07:12:36;13.30;99.90
44823;DHT22;51097;51.984;5.650;2022-12-29T07:15:02;13.40;99.90
44823;DHT22;51097;51.984;5.650;2022-12-29T07:17:27;13.30;99.90
44823;DHT22;51097;51.984;5.650;2022-12-29T07:19:53;13.40;99.90
44823;DHT22;51097;51.984;5.650;2022-12-29T07:22:18;13.30;99.90
44823;DHT22;51097;51.984;5.650;2022-12-29T07:24:44;13.30;99.90
44823;DHT22;51097;51.984;5.650;2022-12-29T07:27:09;13.40;99.90
44823;DHT22;51097;51.984;5.650;2022-12-29T07:29:37;13.40;99.90
44823;DHT22;51097;51.984;5.650;2022-12-29T07:32:02;13.50;99.90
44823;DHT22;51097;51.984;5.650;2022-12-29T07:34:28;13.40;99.90
44823;DHT22;51097;51.984;5.650;2022-12-29T07:36:53;13.20;99.90
44823;DHT22;51097;51.984;5.650;2022-12-29T07:39:19;13.20;99.90
44823;DHT22;51097;51.984;5.650;2022-12-29T07:41:44;13.10;99.90
44823;DHT22;51097;51.984;5.650;2022-12-29T07:44:10;13.10;99.90
44823;DHT22;51097;51.984;5.650;2022-12-29T07:46:36;13.10;99.90
44823;DHT22;51097;51.984;5.650;2022-12-29T07:49:01;13.20;99.90
44823;DHT22;51097;51.984;5.650;2022-12-29T07:51:27;13.00;99.90
44823;DHT22;51097;51.984;5.650;2022-12-29T07:53:52;13.10;99.90
44823;DHT22;51097;51.984;5.650;2022-12-29T07:56:18;13.30;99.90
44823;DHT22;51097;51.984;5.650;2022-12-29T07:58:43;13.20;99.90
44823;DHT22;51097;51.984;5.650;2022-12-29T08:01:09;13.00;99.90
44823;DHT22;51097;51.984;5.650;2022-12-29T08:03:34;13.00;99.90
44823;DHT22;51097;51.984;5.650;2022-12-29T08:06:01;12.90;99.90
44823;DHT22;51097;51.984;5.650;2022-12-29T08:08:27;12.90;99.90
44823;DHT22;51097;51.984;5.650;2022-12-29T08:10:54;12.80;99.90
44823;DHT22;51097;51.984;5.650;2022-12-29T08:13:19;12.80;99.90
44823;DHT22;51097;51.984;5.650;2022-12-29T08:15:45;12.70;99.90
44823;DHT22;51097;51.984;5.650;2022-12-29T08:18:10;12.60;99.90
44823;DHT22;51097;51.984;5.650;2022-12-29T08:20:36;12.60;99.90
44823;DHT22;51097;51.984;5.650;2022-12-29T08:23:01;12.80;99.90
44823;DHT22;51097;51.984;5.650;2022-12-29T08:25:27;12.80;99.90
44823;DHT22;51097;51.984;5.650;2022-12-29T08:27:53;12.80;99.90
44823;DHT22;51097;51.984;5.650;2022-12-29T08:30:20;12.80;99.90
44823;DHT22;51097;51.984;5.650;2022-12-29T08:32:46;12.90;99.90
44823;DHT22;51097;51.984;5.650;2022-12-29T08:35:11;12.80;99.90
44823;DHT22;51097;51.984;5.650;2022-12-29T08:37:38;12.90;99.90
44823;DHT22;51097;51.984;5.650;2022-12-29T08:40:04;12.90;99.90
44823;DHT22;51097;51.984;5.650;2022-12-29T08:42:31;12.80;99.90
44823;DHT22;51097;51.984;5.650;2022-12-29T08:44:58;12.90;99.90
44823;DHT22;51097;51.984;5.650;2022-12-29T08:47:23;12.80;99.90
44823;DHT22;51097;51.984;5.650;2022-12-29T08:49:49;12.80;99.90
44823;DHT22;51097;51.984;5.650;2022-12-29T08:52:14;12.80;99.90
44823;DHT22;51097;51.984;5.650;2022-12-29T08:54:40;13.00;99.90
44823;DHT22;51097;51.984;5.650;2022-12-29T08:57:06;13.00;99.90
44823;DHT22;51097;51.984;5.650;2022-12-29T08:59:31;13.00;99.90
44823;DHT22;51097;51.984;5.650;2022-12-29T09:01:57;13.10;99.90
44823;DHT22;51097;51.984;5.650;2022-12-29T09:04:22;13.00;99.90
44823;DHT22;51097;51.984;5.650;2022-12-29T09:06:49;13.00;99.90
44823;DHT22;51097;51.984;5.650;2022-12-29T09:09:15;13.00;99.90
44823;DHT22;51097;51.984;5.650;2022-12-29T09:11:41;13.10;99.90
44823;DHT22;51097;51.984;5.650;2022-12-29T09:14:07;13.10;99.90
44823;DHT22;51097;51.984;5.650;2022-12-29T09:16:33;13.10;99.90
44823;DHT22;51097;51.984;5.650;2022-12-29T09:18:58;13.10;99.90
44823;DHT22;51097;51.984;5.650;2022-12-29T09:21:24;13.10;99.90
44823;DHT22;51097;51.984;5.650;2022-12-29T09:23:49;13.00;99.90
44823;DHT22;51097;51.984;5.650;2022-12-29T09:26:15;13.00;99.90
44823;DHT22;51097;51.984;5.650;2022-12-29T09:28:41;13.00;99.90
44823;DHT22;51097;51.984;5.650;2022-12-29T09:31:07;13.00;99.90
44823;DHT22;51097;51.984;5.650;2022-12-29T09:33:33;13.00;99.90
44823;DHT22;51097;51.984;5.650;2022-12-29T09:35:59;13.00;99.90
44823;DHT22;51097;51.984;5.650;2022-12-29T09:38:26;13.10;99.90
44823;DHT22;51097;51.984;5.650;2022-12-29T09:40:55;13.00;99.90
44823;DHT22;51097;51.984;5.650;2022-12-29T09:46:26;13.00;99.90
44823;DHT22;51097;51.984;5.650;2022-12-29T09:51:46;13.00;99.90
44823;DHT22;51097;51.984;5.650;2022-12-29T09:56:55;12.80;99.90
44823;DHT22;51097;51.984;5.650;2022-12-29T09:59:27;12.80;99.90
44823;DHT22;51097;51.984;5.650;2022-12-29T10:04:37;12.60;99.90
44823;DHT22;51097;51.984;5.650;2022-12-29T10:07:41;12.60;99.90
44823;DHT22;51097;51.984;5.650;2022-12-29T10:10:18;12.50;99.90
44823;DHT22;51097;51.984;5.650;2022-12-29T10:16:23;12.40;99.90
44823;DHT22;51097;51.984;5.650;2022-12-29T10:19:15;12.50;99.90
44823;DHT22;51097;51.984;5.650;2022-12-29T10:22:12;12.40;99.90
44823;DHT22;51097;51.984;5.650;2022-12-29T10:24:45;12.30;99.90
44823;DHT22;51097;51.984;5.650;2022-12-29T10:27:13;12.40;99.90
44823;DHT22;51097;51.984;5.650;2022-12-29T10:29:48;12.40;99.90
44823;DHT22;51097;51.984;5.650;2022-12-29T10:32:35;12.20;99.90
44823;DHT22;51097;51.984;5.650;2022-12-29T10:35:13;12.30;99.90
44823;DHT22;51097;51.984;5.650;2022-12-29T10:40:58;12.30;99.90
44823;DHT22;51097;51.984;5.650;2022-12-29T10:43:28;12.30;99.90
44823;DHT22;51097;51.984;5.650;2022-12-29T10:46:04;12.30;99.90
44823;DHT22;51097;51.984;5.650;2022-12-29T10:48:32;12.30;99.90
44823;DHT22;51097;51.984;5.650;2022-12-29T10:51:01;12.20;99.90
44823;DHT22;51097;51.984;5.650;2022-12-29T10:53:33;12.20;99.90
44823;DHT22;51097;51.984;5.650;2022-12-29T10:56:01;12.20;99.90
44823;DHT22;51097;51.984;5.650;2022-12-29T10:58:27;12.10;99.90
44823;DHT22;51097;51.984;5.650;2022-12-29T11:00:55;12.10;99.90
44823;DHT22;51097;51.984;5.650;2022-12-29T11:03:34;12.10;99.90
44823;DHT22;51097;51.984;5.650;2022-12-29T11:06:32;12.10;99.90
44823;DHT22;51097;51.984;5.650;2022-12-29T11:09:08;12.10;99.90
44823;DHT22;51097;51.984;5.650;2022-12-29T11:11:36;12.20;99.90
44823;DHT22;51097;51.984;5.650;2022-12-29T11:14:13;12.20;99.90
44823;DHT22;51097;51.984;5.650;2022-12-29T11:16:39;12.40;99.90
44823;DHT22;51097;51.984;5.650;2022-12-29T11:19:20;12.30;99.90
44823;DHT22;51097;51.984;5.650;2022-12-29T11:21:46;12.30;99.90
44823;DHT22;51097;51.984;5.650;2022-12-29T11:24:24;12.40;99.90
44823;DHT22;51097;51.984;5.650;2022-12-29T11:26:52;12.50;99.90
44823;DHT22;51097;51.984;5.650;2022-12-29T11:32:17;12.60;99.90
44823;DHT22;51097;51.984;5.650;2022-12-29T11:34:42;12.70;99.90
44823;DHT22;51097;51.984;5.650;2022-12-29T11:37:16;12.60;99.90
44823;DHT22;51097;51.984;5.650;2022-12-29T11:40:02;12.60;99.90
44823;DHT22;51097;51.984;5.650;2022-12-29T11:42:38;12.40;99.90
44823;DHT22;51097;51.984;5.650;2022-12-29T11:45:18;12.40;99.90
44823;DHT22;51097;51.984;5.650;2022-12-29T11:47:46;12.30;99.90
44823;DHT22;51097;51.984;5.650;2022-12-29T11:50:22;12.40;99.90
44823;DHT22;51097;51.984;5.650;2022-12-29T11:52:50;12.50;99.90
44823;DHT22;51097;51.984;5.650;2022-12-29T11:55:20;12.50;99.90
44823;DHT22;51097;51.984;5.650;2022-12-29T11:57:48;12.60;99.90
44823;DHT22;51097;51.984;5.650;2022-12-29T12:00:20;12.70;99.90
44823;DHT22;51097;51.984;5.650;2022-12-29T12:03:01;12.70;99.90
44823;DHT22;51097;51.984;5.650;2022-12-29T12:08:23;12.70;99.90
44823;DHT22;51097;51.984;5.650;2022-12-29T12:11:04;12.70;99.90
44823;DHT22;51097;51.984;5.650;2022-12-29T12:14:01;12.80;99.90
44823;DHT22;51097;51.984;5.650;2022-12-29T12:16:35;12.80;99.90
44823;DHT22;51097;51.984;5.650;2022-12-29T12:22:03;12.80;99.90
44823;DHT22;51097;51.984;5.650;2022-12-29T12:27:10;12.80;99.90
44823;DHT22;51097;51.984;5.650;2022-12-29T12:29:46;12.90;99.90
44823;DHT22;51097;51.984;5.650;2022-12-29T12:32:17;13.00;99.90
44823;DHT22;51097;51.984;5.650;2022-12-29T12:34:45;13.10;99.90
44823;DHT22;51097;51.984;5.650;2022-12-29T12:40:34;13.20;99.90
44823;DHT22;51097;51.984;5.650;2022-12-29T12:43:32;13.10;99.90
44823;DHT22;51097;51.984;5.650;2022-12-29T13:00:11;13.10;99.90
44823;DHT22;51097;51.984;5.650;2022-12-29T13:05:24;13.30;99.90
44823;DHT22;51097;51.984;5.650;2022-12-29T13:11:02;13.40;99.90
44823;DHT22;51097;51.984;5.650;2022-12-29T13:23:42;13.30;99.90
44823;DHT22;51097;51.984;5.650;2022-12-29T13:26:47;13.00;99.90
44823;DHT22;51097;51.984;5.650;2022-12-29T13:29:23;13.10;99.90
44823;DHT22;51097;51.984;5.650;2022-12-29T13:37:58;13.20;99.90
44823;DHT22;51097;51.984;5.650;2022-12-29T13:40:29;13.20;99.90
44823;DHT22;51097;51.984;5.650;2022-12-29T13:42:59;13.20;99.90
44823;DHT22;51097;51.984;5.650;2022-12-29T13:45:29;13.10;99.90
44823;DHT22;51097;51.984;5.650;2022-12-29T13:50:33;13.20;99.90
44823;DHT22;51097;51.984;5.650;2022-12-29T13:58:33;12.90;99.90
44823;DHT22;51097;51.984;5.650;2022-12-29T14:03:55;12.90;99.90
44823;DHT22;51097;51.984;5.650;2022-12-29T14:06:23;12.90;99.90
44823;DHT22;51097;51.984;5.650;2022-12-29T14:08:56;12.70;99.90
44823;DHT22;51097;51.984;5.650;2022-12-29T14:11:29;12.60;99.90
44823;DHT22;51097;51.984;5.650;2022-12-29T14:13:55;12.50;99.90
44823;DHT22;51097;51.984;5.650;2022-12-29T14:16:30;12.50;99.90
44823;DHT22;51097;51.984;5.650;2022-12-29T14:19:11;12.50;99.90
44823;DHT22;51097;51.984;5.650;2022-12-29T14:21:38;12.50;99.90
44823;DHT22;51097;51.984;5.650;2022-12-29T14:24:28;12.50;99.90
44823;DHT22;51097;51.984;5.650;2022-12-29T14:34:54;12.60;99.90
44823;DHT22;51097;51.984;5.650;2022-12-29T14:37:30;12.70;99.90
44823;DHT22;51097;51.984;5.650;2022-12-29T14:40:25;12.60;99.90
44823;DHT22;51097;51.984;5.650;2022-12-29T14:42:54;12.50;99.90
44823;DHT22;51097;51.984;5.650;2022-12-29T14:47:50;12.50;99.90
44823;DHT22;51097;51.984;5.650;2022-12-29T14:50:39;12.70;99.90
44823;DHT22;51097;51.984;5.650;2022-12-29T14:53:06;12.60;99.90
44823;DHT22;51097;51.984;5.650;2022-12-29T14:55:55;12.70;99.90
44823;DHT22;51097;51.984;5.650;2022-12-29T14:58:26;12.40;99.90
44823;DHT22;51097;51.984;5.650;2022-12-29T15:00:54;12.50;99.90
44823;DHT22;51097;51.984;5.650;2022-12-29T15:03:23;12.50;99.90
44823;DHT22;51097;51.984;5.650;2022-12-29T15:05:54;12.50;99.90
44823;DHT22;51097;51.984;5.650;2022-12-29T15:08:23;12.60;99.90
44823;DHT22;51097;51.984;5.650;2022-12-29T15:11:57;12.50;99.90
44823;DHT22;51097;51.984;5.650;2022-12-29T15:13:50;12.40;99.90
44823;DHT22;51097;51.984;5.650;2022-12-29T15:16:23;12.50;99.90
44823;DHT22;51097;51.984;5.650;2022-12-29T15:18:49;12.40;99.90
44823;DHT22;51097;51.984;5.650;2022-12-29T15:21:16;12.40;99.90
44823;DHT22;51097;51.984;5.650;2022-12-29T15:23:46;12.40;99.90
44823;DHT22;51097;51.984;5.650;2022-12-29T15:26:11;12.30;99.90
44823;DHT22;51097;51.984;5.650;2022-12-29T15:31:06;12.30;99.90
44823;DHT22;51097;51.984;5.650;2022-12-29T15:33:39;12.30;99.90
44823;DHT22;51097;51.984;5.650;2022-12-29T15:36:11;12.40;99.90
44823;DHT22;51097;51.984;5.650;2022-12-29T15:38:38;12.50;99.90
44823;DHT22;51097;51.984;5.650;2022-12-29T15:41:25;12.50;99.90
44823;DHT22;51097;51.984;5.650;2022-12-29T15:46:20;12.40;99.90
44823;DHT22;51097;51.984;5.650;2022-12-29T15:48:49;12.50;99.90
44823;DHT22;51097;51.984;5.650;2022-12-29T15:51:34;12.40;99.90
44823;DHT22;51097;51.984;5.650;2022-12-29T15:54:01;12.40;99.90
44823;DHT22;51097;51.984;5.650;2022-12-29T15:56:31;12.20;99.90
44823;DHT22;51097;51.984;5.650;2022-12-29T15:58:58;12.30;99.90
44823;DHT22;51097;51.984;5.650;2022-12-29T16:01:35;12.40;99.90
44823;DHT22;51097;51.984;5.650;2022-12-29T16:04:05;12.50;99.90
44823;DHT22;51097;51.984;5.650;2022-12-29T16:06:32;12.50;99.90
44823;DHT22;51097;51.984;5.650;2022-12-29T16:09:01;12.40;99.90
44823;DHT22;51097;51.984;5.650;2022-12-29T16:11:32;12.30;99.90
44823;DHT22;51097;51.984;5.650;2022-12-29T16:14:00;12.40;99.90
44823;DHT22;51097;51.984;5.650;2022-12-29T16:16:30;12.40;99.90
44823;DHT22;51097;51.984;5.650;2022-12-29T16:18:57;12.40;99.90
44823;DHT22;51097;51.984;5.650;2022-12-29T16:21:30;12.40;99.90
44823;DHT22;51097;51.984;5.650;2022-12-29T16:24:01;12.40;99.90
44823;DHT22;51097;51.984;5.650;2022-12-29T16:26:27;12.20;99.90
44823;DHT22;51097;51.984;5.650;2022-12-29T16:28:59;12.40;99.90
44823;DHT22;51097;51.984;5.650;2022-12-29T16:33:58;12.40;99.90
44823;DHT22;51097;51.984;5.650;2022-12-29T16:36:52;12.30;99.90
44823;DHT22;51097;51.984;5.650;2022-12-29T16:41:51;12.20;99.90
44823;DHT22;51097;51.984;5.650;2022-12-29T16:44:29;12.20;99.90
44823;DHT22;51097;51.984;5.650;2022-12-29T16:49:39;12.10;99.90
44823;DHT22;51097;51.984;5.650;2022-12-29T16:52:35;12.20;99.90
44823;DHT22;51097;51.984;5.650;2022-12-29T16:55:02;12.10;99.90
44823;DHT22;51097;51.984;5.650;2022-12-29T16:57:33;12.10;99.90
44823;DHT22;51097;51.984;5.650;2022-12-29T17:00:05;12.10;99.90
44823;DHT22;51097;51.984;5.650;2022-12-29T17:02:33;12.10;99.90
44823;DHT22;51097;51.984;5.650;2022-12-29T17:05:00;12.00;99.90
44823;DHT22;51097;51.984;5.650;2022-12-29T17:07:27;11.90;99.90
44823;DHT22;51097;51.984;5.650;2022-12-29T17:09:53;11.90;99.90
44823;DHT22;51097;51.984;5.650;2022-12-29T17:12:28;11.90;99.90
44823;DHT22;51097;51.984;5.650;2022-12-29T17:17:34;11.80;99.90
44823;DHT22;51097;51.984;5.650;2022-12-29T17:20:15;11.90;99.90
44823;DHT22;51097;51.984;5.650;2022-12-29T17:22:41;11.80;99.90
44823;DHT22;51097;51.984;5.650;2022-12-29T17:25:12;11.80;99.90
44823;DHT22;51097;51.984;5.650;2022-12-29T17:27:42;11.60;99.90
44823;DHT22;51097;51.984;5.650;2022-12-29T17:32:39;11.50;99.90
44823;DHT22;51097;51.984;5.650;2022-12-29T17:35:05;11.50;99.90
44823;DHT22;51097;51.984;5.650;2022-12-29T17:37:37;11.60;99.90
44823;DHT22;51097;51.984;5.650;2022-12-29T17:40:05;11.60;99.90
44823;DHT22;51097;51.984;5.650;2022-12-29T17:42:31;11.60;99.90
44823;DHT22;51097;51.984;5.650;2022-12-29T17:44:59;11.40;99.90
44823;DHT22;51097;51.984;5.650;2022-12-29T17:47:25;11.40;99.90
44823;DHT22;51097;51.984;5.650;2022-12-29T17:49:51;11.50;99.90
44823;DHT22;51097;51.984;5.650;2022-12-29T17:52:17;11.50;99.90
44823;DHT22;51097;51.984;5.650;2022-12-29T17:54:50;11.60;99.90
44823;DHT22;51097;51.984;5.650;2022-12-29T17:57:18;11.50;99.90
44823;DHT22;51097;51.984;5.650;2022-12-29T17:59:44;11.50;99.90
44823;DHT22;51097;51.984;5.650;2022-12-29T18:02:28;11.40;99.90
44823;DHT22;51097;51.984;5.650;2022-12-29T18:04:56;11.50;99.90
44823;DHT22;51097;51.984;5.650;2022-12-29T18:07:23;11.30;99.90
44823;DHT22;51097;51.984;5.650;2022-12-29T18:09:49;11.30;99.90